Time;durP1;ratioP1;P1;durP2;ratioP2;P2;SDS_P1;SDS_P2;PMS_P1;PMS_P2;Temp;Humidity;BMP_temperature;BMP_pressure;BME280_temperature;BME280_humidity;BME280_pressure;Samples;Min_cycle;Max_cycle;Signal;HPM_P1;HPM_P2
2022/03/23 00:02:46;;;;;;;598.11;543.69;;;;;;;;;;;;;-59
2022/03/23 00:05:47;;;;;;;595.03;540.87;;;;;;;;;;;;;-58
2022/03/23 00:08:47;;;;;;;594.47;540.45;;;;;;;;;;;;;-57
2022/03/23 00:11:46;;;;;;;593.33;539.20;;;;;;;;;;;;;-57
2022/03/23 00:14:46;;;;;;;594.05;539.94;;;;;;;;;;;;;-62
2022/03/23 00:17:47;;;;;;;594.07;539.95;;;;;;;;;;;;;-61
2022/03/23 00:20:46;;;;;;;592.30;538.25;;;;;;;;;;;;;-57
2022/03/23 00:23:46;;;;;;;593.23;539.19;;;;;;;;;;;;;-52
2022/03/23 00:26:46;;;;;;;591.63;537.60;;;;;;;;;;;;;-54
2022/03/23 00:29:48;;;;;;;587.99;534.17;;;;;;;;;;;;;-56
2022/03/23 00:32:46;;;;;;;591.94;537.99;;;;;;;;;;;;;-57
2022/03/23 00:35:47;;;;;;;589.92;536.10;;;;;;;;;;;;;-56
2022/03/23 00:38:46;;;;;;;588.67;534.93;;;;;;;;;;;;;-57
2022/03/23 00:41:49;;;;;;;587.17;533.46;;;;;;;;;;;;;-57
2022/03/23 00:44:47;;;;;;;589.47;535.67;;;;;;;;;;;;;-57
2022/03/23 00:47:48;;;;;;;590.31;536.40;;;;;;;;;;;;;-56
2022/03/23 00:50:46;;;;;;;592.96;538.95;;;;;;;;;;;;;-56
2022/03/23 00:53:47;;;;;;;592.92;538.86;;;;;;;;;;;;;-57
2022/03/23 00:56:48;;;;;;;598.34;544.11;;;;;;;;;;;;;-56
2022/03/23 00:59:47;;;;;;;592.57;538.51;;;;;;;;;;;;;-56
2022/03/23 01:02:46;;;;;;;590.76;536.77;;;;;;;;;;;;;-52
2022/03/23 01:05:46;;;;;;;588.37;534.49;;;;;;;;;;;;;-53
2022/03/23 01:08:47;;;;;;;590.15;536.24;;;;;;;;;;;;;-58
2022/03/23 01:11:47;;;;;;;589.34;535.47;;;;;;;;;;;;;-58
2022/03/23 01:14:46;;;;;;;588.78;534.92;;;;;;;;;;;;;-57
2022/03/23 01:17:47;;;;;;;587.29;533.52;;;;;;;;;;;;;-56
2022/03/23 01:20:47;;;;;;;585.91;532.16;;;;;;;;;;;;;-57
2022/03/23 01:23:46;;;;;;;581.05;527.53;;;;;;;;;;;;;-55
2022/03/23 01:26:46;;;;;;;585.85;532.13;;;;;;;;;;;;;-57
2022/03/23 01:29:47;;;;;;;588.06;534.33;;;;;;;;;;;;;-57
2022/03/23 01:32:46;;;;;;;587.59;533.82;;;;;;;;;;;;;-57
2022/03/23 01:35:46;;;;;;;586.79;533.08;;;;;;;;;;;;;-56
2022/03/23 01:38:46;;;;;;;588.16;534.27;;;;;;;;;;;;;-57
2022/03/23 01:41:47;;;;;;;588.13;534.40;;;;;;;;;;;;;-58
2022/03/23 01:44:46;;;;;;;583.98;530.32;;;;;;;;;;;;;-61
2022/03/23 01:47:46;;;;;;;585.60;531.99;;;;;;;;;;;;;-58
2022/03/23 01:50:47;;;;;;;586.07;532.35;;;;;;;;;;;;;-62
2022/03/23 01:53:46;;;;;;;582.92;529.34;;;;;;;;;;;;;-58
2022/03/23 01:56:47;;;;;;;582.44;528.82;;;;;;;;;;;;;-58
2022/03/23 01:59:46;;;;;;;582.15;528.52;;;;;;;;;;;;;-57
2022/03/23 02:02:46;;;;;;;586.07;532.35;;;;;;;;;;;;;-56
2022/03/23 02:05:46;;;;;;;583.67;530.12;;;;;;;;;;;;;-57
2022/03/23 02:08:47;;;;;;;587.23;533.47;;;;;;;;;;;;;-57
2022/03/23 02:11:46;;;;;;;585.67;531.83;;;;;;;;;;;;;-59
2022/03/23 02:14:46;;;;;;;585.87;532.18;;;;;;;;;;;;;-57
2022/03/23 02:17:47;;;;;;;583.05;529.51;;;;;;;;;;;;;-57
2022/03/23 02:20:47;;;;;;;582.59;528.88;;;;;;;;;;;;;-57
2022/03/23 02:23:46;;;;;;;583.42;529.74;;;;;;;;;;;;;-57
2022/03/23 02:26:46;;;;;;;581.76;528.19;;;;;;;;;;;;;-57
2022/03/23 02:29:47;;;;;;;581.37;527.75;;;;;;;;;;;;;-56
2022/03/23 02:32:46;;;;;;;578.94;525.41;;;;;;;;;;;;;-57
2022/03/23 02:35:48;;;;;;;576.91;523.53;;;;;;;;;;;;;-57
2022/03/23 02:38:46;;;;;;;580.93;527.41;;;;;;;;;;;;;-51
2022/03/23 02:41:47;;;;;;;578.53;525.06;;;;;;;;;;;;;-54
2022/03/23 02:44:46;;;;;;;578.45;525.01;;;;;;;;;;;;;-54
2022/03/23 02:47:46;;;;;;;577.06;523.85;;;;;;;;;;;;;-54
2022/03/23 02:50:46;;;;;;;576.71;523.27;;;;;;;;;;;;;-54
2022/03/23 03:02:47;;;;;;;576.74;523.41;;;;;;;;;;;;;-52
2022/03/23 03:05:46;;;;;;;578.70;525.39;;;;;;;;;;;;;-54
2022/03/23 03:08:50;;;;;;;572.13;519.07;;;;;;;;;;;;;-51
2022/03/23 03:11:47;;;;;;;577.89;524.43;;;;;;;;;;;;;-54
2022/03/23 03:14:47;;;;;;;573.08;519.85;;;;;;;;;;;;;-52
2022/03/23 03:17:46;;;;;;;577.78;524.39;;;;;;;;;;;;;-54
2022/03/23 03:20:47;;;;;;;575.05;521.80;;;;;;;;;;;;;-58
2022/03/23 03:23:46;;;;;;;570.13;517.06;;;;;;;;;;;;;-57
2022/03/23 03:26:46;;;;;;;572.59;519.40;;;;;;;;;;;;;-57
2022/03/23 03:29:47;;;;;;;572.21;519.13;;;;;;;;;;;;;-56
2022/03/23 03:32:46;;;;;;;575.80;522.43;;;;;;;;;;;;;-58
2022/03/23 03:35:46;;;;;;;574.67;521.40;;;;;;;;;;;;;-58
2022/03/23 03:38:46;;;;;;;572.90;519.67;;;;;;;;;;;;;-57
2022/03/23 03:41:47;;;;;;;571.87;518.80;;;;;;;;;;;;;-57
2022/03/23 03:44:48;;;;;;;571.17;518.16;;;;;;;;;;;;;-57
2022/03/23 03:47:46;;;;;;;574.93;521.73;;;;;;;;;;;;;-58
2022/03/23 03:50:47;;;;;;;570.27;517.24;;;;;;;;;;;;;-58
2022/03/23 03:53:46;;;;;;;572.57;519.45;;;;;;;;;;;;;-57
2022/03/23 03:56:46;;;;;;;568.33;515.34;;;;;;;;;;;;;-58
2022/03/23 03:59:46;;;;;;;574.39;521.23;;;;;;;;;;;;;-58
2022/03/23 04:02:47;;;;;;;573.14;519.89;;;;;;;;;;;;;-58
2022/03/23 04:05:46;;;;;;;571.57;518.52;;;;;;;;;;;;;-58
2022/03/23 04:08:46;;;;;;;569.73;516.71;;;;;;;;;;;;;-58
2022/03/23 04:11:47;;;;;;;572.39;519.31;;;;;;;;;;;;;-58
2022/03/23 04:14:46;;;;;;;567.76;514.79;;;;;;;;;;;;;-57
2022/03/23 04:17:46;;;;;;;572.00;518.87;;;;;;;;;;;;;-56
2022/03/23 04:20:46;;;;;;;570.54;517.43;;;;;;;;;;;;;-57
2022/03/23 04:23:46;;;;;;;569.88;516.88;;;;;;;;;;;;;-56
2022/03/23 04:26:46;;;;;;;569.29;516.29;;;;;;;;;;;;;-57
2022/03/23 04:29:47;;;;;;;568.63;515.61;;;;;;;;;;;;;-57
2022/03/23 04:32:47;;;;;;;571.66;518.51;;;;;;;;;;;;;-55
2022/03/23 04:35:46;;;;;;;567.20;514.25;;;;;;;;;;;;;-58
2022/03/23 04:38:46;;;;;;;568.53;515.69;;;;;;;;;;;;;-62
2022/03/23 04:41:46;;;;;;;561.93;509.15;;;;;;;;;;;;;-58
2022/03/23 04:44:47;;;;;;;564.04;511.19;;;;;;;;;;;;;-58
2022/03/23 04:47:47;;;;;;;563.49;510.83;;;;;;;;;;;;;-60
2022/03/23 04:50:48;;;;;;;562.05;509.28;;;;;;;;;;;;;-58
2022/03/23 04:53:46;;;;;;;562.21;509.50;;;;;;;;;;;;;-58
2022/03/23 04:56:46;;;;;;;555.89;503.43;;;;;;;;;;;;;-62
2022/03/23 04:59:47;;;;;;;562.03;509.37;;;;;;;;;;;;;-54
2022/03/23 05:02:46;;;;;;;557.47;504.89;;;;;;;;;;;;;-54
2022/03/23 05:05:46;;;;;;;557.51;505.07;;;;;;;;;;;;;-52
2022/03/23 05:08:46;;;;;;;558.17;505.57;;;;;;;;;;;;;-52
2022/03/23 05:11:46;;;;;;;553.02;500.64;;;;;;;;;;;;;-54
2022/03/23 05:14:47;;;;;;;553.85;501.53;;;;;;;;;;;;;-54
2022/03/23 05:17:46;;;;;;;555.11;502.70;;;;;;;;;;;;;-51
2022/03/23 05:20:47;;;;;;;558.61;506.07;;;;;;;;;;;;;-56
2022/03/23 05:23:46;;;;;;;556.50;504.04;;;;;;;;;;;;;-58
2022/03/23 05:26:47;;;;;;;554.81;502.40;;;;;;;;;;;;;-57
2022/03/23 05:29:46;;;;;;;553.53;501.15;;;;;;;;;;;;;-58
2022/03/23 05:32:46;;;;;;;551.57;499.35;;;;;;;;;;;;;-57
2022/03/23 05:35:46;;;;;;;551.23;498.97;;;;;;;;;;;;;-57
2022/03/23 05:38:47;;;;;;;550.41;498.15;;;;;;;;;;;;;-58
2022/03/23 05:41:46;;;;;;;547.71;495.57;;;;;;;;;;;;;-57
2022/03/23 05:44:47;;;;;;;548.45;496.34;;;;;;;;;;;;;-60
2022/03/23 05:47:48;;;;;;;552.01;499.75;;;;;;;;;;;;;-54
2022/03/23 05:50:46;;;;;;;550.37;498.13;;;;;;;;;;;;;-54
2022/03/23 05:53:47;;;;;;;549.74;497.50;;;;;;;;;;;;;-62
2022/03/23 05:56:47;;;;;;;553.23;500.93;;;;;;;;;;;;;-57
2022/03/23 05:59:47;;;;;;;553.55;501.13;;;;;;;;;;;;;-57
2022/03/23 06:02:46;;;;;;;549.62;497.48;;;;;;;;;;;;;-52
2022/03/23 06:05:46;;;;;;;550.55;498.33;;;;;;;;;;;;;-57
2022/03/23 06:08:46;;;;;;;553.99;501.75;;;;;;;;;;;;;-56
2022/03/23 06:11:46;;;;;;;554.22;501.86;;;;;;;;;;;;;-56
2022/03/23 06:14:47;;;;;;;556.75;504.29;;;;;;;;;;;;;-57
2022/03/23 06:17:46;;;;;;;557.47;505.05;;;;;;;;;;;;;-57
2022/03/23 06:20:46;;;;;;;564.96;512.27;;;;;;;;;;;;;-54
2022/03/23 06:23:46;;;;;;;564.39;511.03;;;;;;;;;;;;;-57
2022/03/23 06:26:46;;;;;;;540.36;487.93;;;;;;;;;;;;;-54
2022/03/23 06:29:46;;;;;;;534.97;482.57;;;;;;;;;;;;;-55
2022/03/23 06:32:46;;;;;;;528.69;476.69;;;;;;;;;;;;;-61
2022/03/23 06:35:46;;;;;;;527.71;475.65;;;;;;;;;;;;;-54
2022/03/23 06:38:48;;;;;;;523.88;471.57;;;;;;;;;;;;;-56
2022/03/23 06:41:46;;;;;;;537.24;484.88;;;;;;;;;;;;;-61
2022/03/23 06:44:46;;;;;;;541.41;489.03;;;;;;;;;;;;;-51
2022/03/23 06:47:46;;;;;;;548.60;495.89;;;;;;;;;;;;;-50
2022/03/23 06:50:46;;;;;;;548.00;495.47;;;;;;;;;;;;;-51
2022/03/23 06:53:46;;;;;;;545.99;493.36;;;;;;;;;;;;;-51
2022/03/23 06:56:50;;;;;;;551.71;498.87;;;;;;;;;;;;;-58
2022/03/23 06:59:46;;;;;;;557.18;504.39;;;;;;;;;;;;;-51
2022/03/23 07:02:46;;;;;;;554.33;501.50;;;;;;;;;;;;;-51
2022/03/23 07:05:46;;;;;;;551.34;498.87;;;;;;;;;;;;;-58
2022/03/23 07:11:46;;;;;;;554.93;502.23;;;;;;;;;;;;;-52
2022/03/23 07:14:48;;;;;;;554.07;501.47;;;;;;;;;;;;;-51
2022/03/23 07:17:46;;;;;;;552.79;500.25;;;;;;;;;;;;;-51
2022/03/23 07:20:46;;;;;;;551.87;499.31;;;;;;;;;;;;;-58
2022/03/23 07:23:46;;;;;;;556.29;503.59;;;;;;;;;;;;;-52
2022/03/23 07:26:46;;;;;;;556.93;504.21;;;;;;;;;;;;;-51
2022/03/23 07:29:46;;;;;;;559.63;506.81;;;;;;;;;;;;;-51
2022/03/23 07:32:46;;;;;;;553.64;501.26;;;;;;;;;;;;;-58
2022/03/23 07:35:46;;;;;;;557.45;504.83;;;;;;;;;;;;;-52
2022/03/23 07:38:46;;;;;;;558.59;506.01;;;;;;;;;;;;;-58
2022/03/23 07:41:49;;;;;;;551.74;499.31;;;;;;;;;;;;;-57
2022/03/23 07:44:46;;;;;;;553.65;501.21;;;;;;;;;;;;;-57
2022/03/23 07:47:46;;;;;;;550.63;498.25;;;;;;;;;;;;;-58
2022/03/23 07:50:46;;;;;;;555.05;502.59;;;;;;;;;;;;;-58
2022/03/23 07:53:46;;;;;;;549.49;497.15;;;;;;;;;;;;;-57
2022/03/23 07:56:46;;;;;;;550.84;498.45;;;;;;;;;;;;;-57
2022/03/23 07:59:46;;;;;;;550.40;498.15;;;;;;;;;;;;;-58
2022/03/23 08:02:46;;;;;;;554.88;502.41;;;;;;;;;;;;;-51
2022/03/23 08:05:46;;;;;;;550.03;497.70;;;;;;;;;;;;;-51
2022/03/23 08:08:46;;;;;;;551.04;498.82;;;;;;;;;;;;;-51
2022/03/23 08:11:46;;;;;;;556.23;503.69;;;;;;;;;;;;;-51
2022/03/23 08:14:46;;;;;;;551.75;499.45;;;;;;;;;;;;;-51
2022/03/23 08:17:46;;;;;;;553.61;501.13;;;;;;;;;;;;;-51
2022/03/23 08:20:47;;;;;;;549.77;497.47;;;;;;;;;;;;;-58
2022/03/23 08:23:46;;;;;;;548.38;496.27;;;;;;;;;;;;;-51
2022/03/23 08:26:46;;;;;;;546.12;493.97;;;;;;;;;;;;;-51
2022/03/23 08:29:46;;;;;;;547.57;495.21;;;;;;;;;;;;;-51
2022/03/23 08:32:46;;;;;;;549.19;496.89;;;;;;;;;;;;;-51
2022/03/23 08:35:46;;;;;;;547.55;495.19;;;;;;;;;;;;;-51
2022/03/23 08:38:46;;;;;;;551.97;499.42;;;;;;;;;;;;;-51
2022/03/23 08:41:46;;;;;;;547.01;494.85;;;;;;;;;;;;;-50
2022/03/23 08:44:46;;;;;;;544.99;492.97;;;;;;;;;;;;;-52
2022/03/23 08:47:48;;;;;;;547.82;495.72;;;;;;;;;;;;;-51
2022/03/23 08:50:46;;;;;;;546.59;494.43;;;;;;;;;;;;;-58
2022/03/23 08:53:46;;;;;;;548.93;496.78;;;;;;;;;;;;;-58
2022/03/23 08:56:46;;;;;;;545.91;493.83;;;;;;;;;;;;;-51
2022/03/23 08:59:46;;;;;;;546.73;494.64;;;;;;;;;;;;;-52
2022/03/23 09:02:46;;;;;;;545.87;493.75;;;;;;;;;;;;;-52
2022/03/23 09:05:46;;;;;;;543.57;491.29;;;;;;;;;;;;;-57
2022/03/23 09:08:46;;;;;;;546.55;494.32;;;;;;;;;;;;;-54
2022/03/23 09:11:46;;;;;;;548.93;496.59;;;;;;;;;;;;;-56
2022/03/23 09:14:46;;;;;;;549.71;497.41;;;;;;;;;;;;;-53
2022/03/23 09:17:46;;;;;;;543.63;491.45;;;;;;;;;;;;;-53
2022/03/23 09:20:46;;;;;;;547.45;495.24;;;;;;;;;;;;;-57
2022/03/23 09:23:46;;;;;;;551.22;498.91;;;;;;;;;;;;;-57
2022/03/23 09:26:47;;;;;;;554.63;502.26;;;;;;;;;;;;;-56
2022/03/23 09:29:46;;;;;;;557.11;504.43;;;;;;;;;;;;;-56
2022/03/23 09:32:46;;;;;;;559.92;507.41;;;;;;;;;;;;;-57
2022/03/23 09:35:46;;;;;;;562.97;510.13;;;;;;;;;;;;;-56
2022/03/23 09:38:46;;;;;;;559.80;506.90;;;;;;;;;;;;;-49
2022/03/23 09:41:46;;;;;;;563.44;510.55;;;;;;;;;;;;;-49
2022/03/23 09:44:47;;;;;;;570.21;517.23;;;;;;;;;;;;;-60
2022/03/23 09:47:57;;;;;;;576.02;521.67;;;;;;;;;;;;;-50
2022/03/23 09:50:46;;;;;;;571.13;518.07;;;;;;;;;;;;;-53
2022/03/23 09:53:46;;;;;;;569.71;516.62;;;;;;;;;;;;;-51
2022/03/23 09:56:46;;;;;;;575.72;522.22;;;;;;;;;;;;;-56
2022/03/23 09:59:46;;;;;;;579.28;525.85;;;;;;;;;;;;;-59
2022/03/23 10:02:46;;;;;;;583.03;529.23;;;;;;;;;;;;;-55
2022/03/23 10:06:48;;;;;;;572.98;519.24;;;;;;;;;;;;;-53
2022/03/23 10:09:46;;;;;;;583.23;529.71;;;;;;;;;;;;;-60
2022/03/23 10:12:46;;;;;;;591.57;537.68;;;;;;;;;;;;;-57
2022/03/23 10:16:46;;;;;;;582.55;529.03;;;;;;;;;;;;;-58
2022/03/23 10:19:46;;;;;;;591.20;537.26;;;;;;;;;;;;;-60
2022/03/23 10:22:46;;;;;;;594.61;540.55;;;;;;;;;;;;;-58
2022/03/23 10:25:46;;;;;;;593.02;538.97;;;;;;;;;;;;;-58
2022/03/23 10:28:46;;;;;;;596.33;542.24;;;;;;;;;;;;;-55
2022/03/23 10:31:46;;;;;;;592.47;538.59;;;;;;;;;;;;;-64
2022/03/23 10:34:46;;;;;;;594.63;540.35;;;;;;;;;;;;;-60
2022/03/23 10:37:48;;;;;;;593.22;539.30;;;;;;;;;;;;;-53
2022/03/23 10:40:46;;;;;;;599.42;545.39;;;;;;;;;;;;;-55
2022/03/23 10:43:46;;;;;;;598.27;543.97;;;;;;;;;;;;;-48
2022/03/23 10:46:46;;;;;;;595.93;541.78;;;;;;;;;;;;;-54
2022/03/23 10:49:46;;;;;;;604.66;550.34;;;;;;;;;;;;;-53
2022/03/23 10:52:46;;;;;;;599.74;545.50;;;;;;;;;;;;;-55
2022/03/23 10:55:47;;;;;;;604.69;550.30;;;;;;;;;;;;;-58
2022/03/23 10:58:47;;;;;;;598.88;543.96;;;;;;;;;;;;;-58
2022/03/23 11:01:47;;;;;;;602.31;547.83;;;;;;;;;;;;;-53
2022/03/23 11:04:46;;;;;;;601.31;546.97;;;;;;;;;;;;;-54
2022/03/23 11:07:46;;;;;;;603.51;549.07;;;;;;;;;;;;;-56
2022/03/23 11:16:46;;;;;;;610.04;555.38;;;;;;;;;;;;;-54
2022/03/23 11:19:46;;;;;;;615.99;561.10;;;;;;;;;;;;;-60
2022/03/23 11:22:46;;;;;;;612.87;557.93;;;;;;;;;;;;;-58
2022/03/23 11:25:46;;;;;;;613.02;558.11;;;;;;;;;;;;;-53
2022/03/23 11:28:47;;;;;;;615.03;560.30;;;;;;;;;;;;;-60
2022/03/23 11:31:46;;;;;;;617.46;562.55;;;;;;;;;;;;;-61
2022/03/23 11:34:48;;;;;;;614.11;559.27;;;;;;;;;;;;;-60
2022/03/23 11:37:47;;;;;;;613.17;558.43;;;;;;;;;;;;;-58
2022/03/23 11:40:47;;;;;;;612.67;557.88;;;;;;;;;;;;;-58
2022/03/23 11:43:46;;;;;;;613.71;558.77;;;;;;;;;;;;;-57
2022/03/23 11:46:46;;;;;;;613.64;558.85;;;;;;;;;;;;;-57
2022/03/23 11:49:46;;;;;;;617.09;562.35;;;;;;;;;;;;;-52
2022/03/23 11:52:46;;;;;;;614.77;559.89;;;;;;;;;;;;;-51
2022/03/23 11:55:47;;;;;;;618.83;563.72;;;;;;;;;;;;;-58
2022/03/23 11:58:46;;;;;;;614.44;559.65;;;;;;;;;;;;;-59
2022/03/23 12:01:46;;;;;;;613.26;558.45;;;;;;;;;;;;;-56
2022/03/23 12:04:46;;;;;;;615.20;560.28;;;;;;;;;;;;;-53
2022/03/23 12:07:46;;;;;;;614.67;559.57;;;;;;;;;;;;;-58
2022/03/23 12:10:46;;;;;;;618.93;563.89;;;;;;;;;;;;;-58
2022/03/23 12:13:46;;;;;;;613.43;558.53;;;;;;;;;;;;;-51
2022/03/23 12:16:46;;;;;;;616.21;561.43;;;;;;;;;;;;;-58
2022/03/23 12:19:46;;;;;;;619.42;564.43;;;;;;;;;;;;;-58
2022/03/23 12:22:46;;;;;;;628.13;572.89;;;;;;;;;;;;;-53
2022/03/23 12:25:47;;;;;;;622.31;567.18;;;;;;;;;;;;;-57
2022/03/23 12:28:48;;;;;;;621.63;566.69;;;;;;;;;;;;;-57
2022/03/23 12:31:46;;;;;;;621.45;566.46;;;;;;;;;;;;;-57
2022/03/23 12:34:47;;;;;;;620.65;565.57;;;;;;;;;;;;;-51
2022/03/23 12:37:46;;;;;;;622.84;567.76;;;;;;;;;;;;;-53
2022/03/23 12:40:46;;;;;;;620.29;565.37;;;;;;;;;;;;;-53
2022/03/23 12:43:46;;;;;;;623.83;568.67;;;;;;;;;;;;;-55
2022/03/23 12:46:46;;;;;;;620.35;565.27;;;;;;;;;;;;;-50
2022/03/23 12:58:46;;;;;;;624.33;569.17;;;;;;;;;;;;;-53
2022/03/23 13:01:46;;;;;;;630.01;574.40;;;;;;;;;;;;;-53
2022/03/23 13:04:47;;;;;;;625.68;570.29;;;;;;;;;;;;;-50
2022/03/23 13:07:48;;;;;;;625.50;570.15;;;;;;;;;;;;;-57
2022/03/23 13:10:46;;;;;;;629.85;574.32;;;;;;;;;;;;;-54
2022/03/23 13:13:48;;;;;;;631.27;575.59;;;;;;;;;;;;;-52
2022/03/23 13:16:47;;;;;;;626.73;571.12;;;;;;;;;;;;;-49
2022/03/23 13:19:46;;;;;;;624.59;569.42;;;;;;;;;;;;;-50
2022/03/23 13:22:46;;;;;;;628.10;572.64;;;;;;;;;;;;;-55
2022/03/23 13:25:47;;;;;;;628.79;573.27;;;;;;;;;;;;;-55
2022/03/23 13:28:47;;;;;;;631.22;575.77;;;;;;;;;;;;;-61
2022/03/23 13:31:46;;;;;;;629.67;574.13;;;;;;;;;;;;;-50
2022/03/23 13:34:46;;;;;;;629.97;574.53;;;;;;;;;;;;;-55
2022/03/23 13:37:46;;;;;;;629.05;573.67;;;;;;;;;;;;;-55
2022/03/23 13:43:51;;;;;;;632.01;576.57;;;;;;;;;;;;;-61
2022/03/23 13:46:47;;;;;;;634.66;579.01;;;;;;;;;;;;;-61
2022/03/23 13:49:46;;;;;;;629.21;573.81;;;;;;;;;;;;;-55
2022/03/23 13:52:46;;;;;;;634.09;578.52;;;;;;;;;;;;;-50
2022/03/23 13:55:47;;;;;;;631.97;576.45;;;;;;;;;;;;;-50
2022/03/23 13:58:46;;;;;;;630.64;575.07;;;;;;;;;;;;;-50
2022/03/23 14:01:46;;;;;;;631.75;576.27;;;;;;;;;;;;;-50
2022/03/23 14:04:46;;;;;;;632.19;576.75;;;;;;;;;;;;;-60
2022/03/23 14:07:46;;;;;;;631.14;575.64;;;;;;;;;;;;;-52
2022/03/23 14:10:46;;;;;;;631.16;575.63;;;;;;;;;;;;;-54
2022/03/23 14:13:46;;;;;;;633.61;578.05;;;;;;;;;;;;;-53
2022/03/23 14:16:46;;;;;;;631.15;575.67;;;;;;;;;;;;;-53
2022/03/23 14:19:46;;;;;;;631.73;576.19;;;;;;;;;;;;;-54
2022/03/23 14:22:47;;;;;;;627.75;572.53;;;;;;;;;;;;;-59
2022/03/23 14:25:47;;;;;;;626.29;571.03;;;;;;;;;;;;;-57
2022/03/23 14:28:47;;;;;;;630.45;575.11;;;;;;;;;;;;;-50
2022/03/23 14:31:47;;;;;;;628.23;572.95;;;;;;;;;;;;;-54
2022/03/23 14:34:46;;;;;;;629.47;574.08;;;;;;;;;;;;;-55
2022/03/23 14:37:46;;;;;;;631.99;576.29;;;;;;;;;;;;;-55
2022/03/23 14:40:46;;;;;;;627.08;571.81;;;;;;;;;;;;;-53
2022/03/23 14:43:46;;;;;;;628.60;573.31;;;;;;;;;;;;;-57
2022/03/23 14:46:46;;;;;;;625.85;570.73;;;;;;;;;;;;;-60
2022/03/23 14:49:46;;;;;;;620.73;565.73;;;;;;;;;;;;;-55
2022/03/23 14:52:46;;;;;;;624.26;569.15;;;;;;;;;;;;;-53
2022/03/23 14:55:46;;;;;;;626.95;571.72;;;;;;;;;;;;;-57
2022/03/23 14:58:46;;;;;;;623.92;568.40;;;;;;;;;;;;;-59
2022/03/23 15:01:46;;;;;;;622.48;566.73;;;;;;;;;;;;;-51
2022/03/23 15:04:47;;;;;;;615.95;561.03;;;;;;;;;;;;;-58
2022/03/23 15:13:46;;;;;;;628.20;572.81;;;;;;;;;;;;;-54
2022/03/23 15:16:46;;;;;;;623.33;568.30;;;;;;;;;;;;;-57
2022/03/23 15:19:46;;;;;;;627.59;572.01;;;;;;;;;;;;;-54
2022/03/23 15:22:46;;;;;;;624.23;568.67;;;;;;;;;;;;;-52
2022/03/23 15:25:47;;;;;;;630.38;574.99;;;;;;;;;;;;;-55
2022/03/23 15:28:46;;;;;;;626.85;571.62;;;;;;;;;;;;;-54
2022/03/23 15:31:46;;;;;;;631.57;576.22;;;;;;;;;;;;;-50
2022/03/23 15:34:46;;;;;;;628.69;573.31;;;;;;;;;;;;;-54
2022/03/23 15:37:46;;;;;;;627.61;572.36;;;;;;;;;;;;;-56
2022/03/23 15:40:46;;;;;;;633.74;578.31;;;;;;;;;;;;;-55
2022/03/23 15:43:46;;;;;;;627.65;572.37;;;;;;;;;;;;;-53
2022/03/23 15:46:49;;;;;;;630.27;574.96;;;;;;;;;;;;;-56
2022/03/23 15:49:47;;;;;;;627.23;572.01;;;;;;;;;;;;;-58
2022/03/23 15:52:46;;;;;;;632.73;577.32;;;;;;;;;;;;;-52
2022/03/23 15:55:46;;;;;;;633.01;577.44;;;;;;;;;;;;;-53
2022/03/23 15:58:46;;;;;;;628.49;573.16;;;;;;;;;;;;;-57
2022/03/23 16:01:47;;;;;;;624.95;569.61;;;;;;;;;;;;;-62
2022/03/23 16:04:46;;;;;;;624.03;568.45;;;;;;;;;;;;;-59
2022/03/23 16:07:48;;;;;;;620.54;564.96;;;;;;;;;;;;;-57
2022/03/23 16:10:47;;;;;;;627.38;571.86;;;;;;;;;;;;;-58
2022/03/23 16:13:46;;;;;;;629.27;573.81;;;;;;;;;;;;;-55
2022/03/23 16:16:46;;;;;;;636.22;579.94;;;;;;;;;;;;;-55
2022/03/23 16:19:46;;;;;;;630.17;574.84;;;;;;;;;;;;;-50
2022/03/23 16:22:46;;;;;;;631.53;575.91;;;;;;;;;;;;;-54
2022/03/23 16:25:46;;;;;;;633.79;578.15;;;;;;;;;;;;;-59
2022/03/23 16:28:47;;;;;;;632.79;577.20;;;;;;;;;;;;;-56
2022/03/23 16:31:47;;;;;;;633.22;577.61;;;;;;;;;;;;;-50
2022/03/23 16:34:46;;;;;;;633.09;577.40;;;;;;;;;;;;;-59
2022/03/23 16:37:46;;;;;;;637.42;581.44;;;;;;;;;;;;;-57
2022/03/23 16:40:46;;;;;;;636.23;580.55;;;;;;;;;;;;;-61
2022/03/23 16:43:48;;;;;;;627.73;571.97;;;;;;;;;;;;;-62
2022/03/23 16:46:46;;;;;;;633.39;577.68;;;;;;;;;;;;;-58
2022/03/23 16:49:46;;;;;;;632.67;576.99;;;;;;;;;;;;;-58
2022/03/23 16:52:47;;;;;;;631.45;575.69;;;;;;;;;;;;;-60
2022/03/23 16:55:48;;;;;;;634.00;578.23;;;;;;;;;;;;;-60
2022/03/23 16:58:47;;;;;;;633.95;577.91;;;;;;;;;;;;;-58
2022/03/23 17:01:48;;;;;;;638.70;582.47;;;;;;;;;;;;;-57
2022/03/23 17:12:46;;;;;;;618.67;563.43;;;;;;;;;;;;;-57
2022/03/23 17:15:47;;;;;;;629.52;573.80;;;;;;;;;;;;;-56
2022/03/23 17:18:47;;;;;;;633.19;577.43;;;;;;;;;;;;;-58
2022/03/23 17:21:48;;;;;;;632.45;576.60;;;;;;;;;;;;;-54
2022/03/23 17:24:46;;;;;;;635.28;579.51;;;;;;;;;;;;;-58
2022/03/23 17:27:46;;;;;;;633.73;578.14;;;;;;;;;;;;;-53
2022/03/23 17:30:46;;;;;;;636.95;581.11;;;;;;;;;;;;;-58
2022/03/23 17:33:46;;;;;;;634.97;579.12;;;;;;;;;;;;;-54
2022/03/23 17:36:46;;;;;;;632.49;576.78;;;;;;;;;;;;;-59
2022/03/23 17:39:46;;;;;;;632.33;576.87;;;;;;;;;;;;;-55
2022/03/23 17:42:46;;;;;;;633.95;577.91;;;;;;;;;;;;;-60
2022/03/23 17:45:46;;;;;;;634.60;579.00;;;;;;;;;;;;;-60
2022/03/23 17:48:46;;;;;;;631.66;576.09;;;;;;;;;;;;;-60
2022/03/23 17:51:46;;;;;;;637.29;581.46;;;;;;;;;;;;;-53
2022/03/23 17:54:46;;;;;;;634.17;578.53;;;;;;;;;;;;;-55
2022/03/23 17:57:46;;;;;;;635.75;579.98;;;;;;;;;;;;;-57
2022/03/23 18:00:48;;;;;;;637.65;581.65;;;;;;;;;;;;;-57
2022/03/23 18:03:47;;;;;;;635.13;579.36;;;;;;;;;;;;;-53
2022/03/23 18:06:46;;;;;;;635.09;579.55;;;;;;;;;;;;;-57
2022/03/23 18:09:46;;;;;;;637.50;581.79;;;;;;;;;;;;;-58
2022/03/23 18:12:47;;;;;;;638.26;582.47;;;;;;;;;;;;;-55
2022/03/23 18:15:51;;;;;;;639.46;583.63;;;;;;;;;;;;;-57
2022/03/23 18:18:46;;;;;;;641.55;585.57;;;;;;;;;;;;;-57
2022/03/23 18:21:46;;;;;;;642.74;586.49;;;;;;;;;;;;;-58
2022/03/23 18:24:46;;;;;;;637.89;582.15;;;;;;;;;;;;;-59
2022/03/23 18:27:46;;;;;;;638.53;582.66;;;;;;;;;;;;;-58
2022/03/23 18:30:50;;;;;;;639.07;583.29;;;;;;;;;;;;;-56
2022/03/23 18:33:46;;;;;;;638.53;582.72;;;;;;;;;;;;;-56
2022/03/23 18:36:46;;;;;;;636.89;580.85;;;;;;;;;;;;;-56
2022/03/23 18:39:46;;;;;;;634.19;578.54;;;;;;;;;;;;;-56
2022/03/23 18:42:46;;;;;;;627.41;571.91;;;;;;;;;;;;;-54
2022/03/23 18:45:46;;;;;;;637.69;581.79;;;;;;;;;;;;;-53
2022/03/23 18:48:46;;;;;;;637.81;581.79;;;;;;;;;;;;;-57
2022/03/23 18:51:53;;;;;;;641.72;584.87;;;;;;;;;;;;;-51
2022/03/23 18:54:46;;;;;;;638.52;582.44;;;;;;;;;;;;;-51
2022/03/23 18:57:51;;;;;;;639.31;583.53;;;;;;;;;;;;;-53
2022/03/23 19:00:46;;;;;;;638.64;582.89;;;;;;;;;;;;;-53
2022/03/23 19:03:46;;;;;;;637.63;581.85;;;;;;;;;;;;;-58
2022/03/23 19:06:46;;;;;;;640.25;583.99;;;;;;;;;;;;;-56
2022/03/23 19:09:46;;;;;;;640.13;584.40;;;;;;;;;;;;;-57
2022/03/23 19:12:46;;;;;;;642.67;586.88;;;;;;;;;;;;;-52
2022/03/23 19:15:46;;;;;;;641.62;585.68;;;;;;;;;;;;;-59
2022/03/23 19:18:46;;;;;;;640.97;585.03;;;;;;;;;;;;;-57
2022/03/23 19:21:47;;;;;;;638.45;582.87;;;;;;;;;;;;;-53
2022/03/23 19:24:46;;;;;;;642.89;587.00;;;;;;;;;;;;;-59
2022/03/23 19:27:47;;;;;;;641.89;586.00;;;;;;;;;;;;;-58
2022/03/23 19:30:46;;;;;;;642.10;586.14;;;;;;;;;;;;;-57
2022/03/23 19:33:47;;;;;;;640.37;584.60;;;;;;;;;;;;;-57
2022/03/23 19:36:46;;;;;;;642.41;586.50;;;;;;;;;;;;;-57
2022/03/23 19:39:46;;;;;;;644.47;588.51;;;;;;;;;;;;;-57
2022/03/23 19:42:46;;;;;;;639.53;583.81;;;;;;;;;;;;;-57
2022/03/23 19:45:47;;;;;;;644.71;588.83;;;;;;;;;;;;;-57
2022/03/23 19:48:46;;;;;;;641.91;586.08;;;;;;;;;;;;;-57
2022/03/23 19:51:46;;;;;;;640.99;585.19;;;;;;;;;;;;;-57
2022/03/23 19:54:46;;;;;;;646.40;590.52;;;;;;;;;;;;;-57
2022/03/23 19:57:46;;;;;;;643.57;587.70;;;;;;;;;;;;;-59
2022/03/23 20:00:46;;;;;;;641.14;585.34;;;;;;;;;;;;;-60
2022/03/23 20:03:48;;;;;;;639.29;583.60;;;;;;;;;;;;;-53
2022/03/23 20:06:46;;;;;;;642.33;586.52;;;;;;;;;;;;;-52
2022/03/23 20:09:46;;;;;;;638.37;582.75;;;;;;;;;;;;;-59
2022/03/23 20:12:46;;;;;;;634.63;579.11;;;;;;;;;;;;;-57
2022/03/23 20:15:46;;;;;;;634.85;579.35;;;;;;;;;;;;;-57
2022/03/23 20:18:46;;;;;;;635.24;579.77;;;;;;;;;;;;;-57
2022/03/23 20:21:46;;;;;;;633.07;577.65;;;;;;;;;;;;;-58
2022/03/23 20:24:46;;;;;;;633.84;578.55;;;;;;;;;;;;;-55
2022/03/23 20:27:46;;;;;;;634.21;578.76;;;;;;;;;;;;;-53
2022/03/23 20:30:46;;;;;;;633.43;578.01;;;;;;;;;;;;;-56
2022/03/23 20:33:46;;;;;;;634.51;579.13;;;;;;;;;;;;;-58
2022/03/23 20:36:46;;;;;;;632.42;577.01;;;;;;;;;;;;;-56
2022/03/23 20:39:46;;;;;;;632.43;577.13;;;;;;;;;;;;;-55
2022/03/23 20:42:46;;;;;;;631.63;576.18;;;;;;;;;;;;;-53
2022/03/23 20:45:52;;;;;;;636.37;580.73;;;;;;;;;;;;;-52
2022/03/23 20:48:46;;;;;;;637.83;582.31;;;;;;;;;;;;;-52
2022/03/23 20:51:47;;;;;;;631.43;576.11;;;;;;;;;;;;;-56
2022/03/23 20:54:46;;;;;;;632.83;577.51;;;;;;;;;;;;;-57
2022/03/23 20:57:46;;;;;;;632.95;577.56;;;;;;;;;;;;;-56
2022/03/23 21:00:47;;;;;;;634.59;579.12;;;;;;;;;;;;;-58
2022/03/23 21:03:46;;;;;;;637.13;581.60;;;;;;;;;;;;;-62
2022/03/23 21:06:50;;;;;;;641.33;585.37;;;;;;;;;;;;;-62
2022/03/23 21:09:46;;;;;;;636.21;580.65;;;;;;;;;;;;;-53
2022/03/23 21:12:46;;;;;;;638.27;582.64;;;;;;;;;;;;;-56
2022/03/23 21:15:46;;;;;;;636.83;581.19;;;;;;;;;;;;;-54
2022/03/23 21:18:46;;;;;;;637.99;582.36;;;;;;;;;;;;;-57
2022/03/23 21:21:50;;;;;;;641.91;586.01;;;;;;;;;;;;;-58
2022/03/23 21:24:46;;;;;;;632.22;576.66;;;;;;;;;;;;;-58
2022/03/23 21:27:46;;;;;;;627.57;572.39;;;;;;;;;;;;;-58
2022/03/23 21:30:46;;;;;;;623.33;568.23;;;;;;;;;;;;;-58
2022/03/23 21:33:47;;;;;;;623.69;568.62;;;;;;;;;;;;;-58
2022/03/23 21:36:46;;;;;;;620.53;565.50;;;;;;;;;;;;;-58
2022/03/23 21:39:46;;;;;;;620.81;566.00;;;;;;;;;;;;;-58
2022/03/23 21:42:46;;;;;;;619.69;564.77;;;;;;;;;;;;;-58
2022/03/23 21:45:46;;;;;;;620.72;565.77;;;;;;;;;;;;;-54
2022/03/23 21:48:46;;;;;;;619.61;564.65;;;;;;;;;;;;;-54
2022/03/23 21:51:46;;;;;;;611.57;557.23;;;;;;;;;;;;;-54
2022/03/23 21:54:46;;;;;;;612.27;557.71;;;;;;;;;;;;;-53
2022/03/23 21:57:46;;;;;;;611.99;557.41;;;;;;;;;;;;;-54